createdAt,value
2019-02-28T00:01:46.281Z,100485.86
2019-02-28T00:04:12.727Z,100491.78
2019-02-28T00:06:40.233Z,100492.11
2019-02-28T00:09:09.219Z,100493.32
2019-02-28T00:11:39.525Z,100491.41
2019-02-28T00:14:06.023Z,100493.53
2019-02-28T00:16:35.662Z,100482.79
2019-02-28T00:19:02.714Z,100481.08
2019-02-28T00:21:31.064Z,100479.65
2019-02-28T00:23:58.453Z,100481.67
2019-02-28T00:26:25.943Z,100479.50
2019-02-28T00:28:53.343Z,100481.85
2019-02-28T00:31:20.803Z,100475.30
2019-02-28T00:33:48.698Z,100475.52
2019-02-28T00:36:16.285Z,100468.48
2019-02-28T00:38:45.559Z,100470.39
2019-02-28T00:41:13.003Z,100457.95
2019-02-28T00:43:40.483Z,100456.77
2019-02-28T00:46:10.112Z,100451.14
2019-02-28T00:48:37.224Z,100451.09
2019-02-28T00:51:04.744Z,100449.20
2019-02-28T00:53:32.378Z,100444.90
2019-02-28T00:55:59.758Z,100451.88
2019-02-28T00:58:28.864Z,100451.37
2019-02-28T01:00:56.499Z,100443.03
2019-02-28T01:03:27.417Z,100434.66
2019-02-28T01:05:53.203Z,100436.67
2019-02-28T01:08:22.131Z,100435.33
2019-02-28T01:10:49.933Z,100423.47
2019-02-28T01:13:17.353Z,100422.98
2019-02-28T01:15:45.723Z,100417.78
2019-02-28T01:18:13.315Z,100416.25
2019-02-28T01:20:40.687Z,100418.87
2019-02-28T01:23:08.213Z,100417.88
2019-02-28T01:25:37.174Z,100416.63
2019-02-28T01:28:04.958Z,100422.32
2019-02-28T01:30:32.383Z,100422.42
2019-02-28T01:32:59.813Z,100414.55
2019-02-28T01:35:27.208Z,100406.59
2019-02-28T01:37:54.676Z,100409.44
2019-02-28T01:40:22.058Z,100404.89
2019-02-28T01:42:53.914Z,100404.16
2019-02-28T01:45:18.779Z,100389.37
2019-02-28T01:47:46.233Z,100393.23
2019-02-28T01:50:13.727Z,100391.25
2019-02-28T01:52:44.846Z,100383.91
2019-02-28T01:55:11.373Z,100380.36
2019-02-28T01:57:42.507Z,100376.98
2019-02-28T02:00:10.474Z,100373.05
2019-02-28T02:02:38.971Z,100370.33
2019-02-28T02:05:06.913Z,100366.25
2019-02-28T02:07:35.123Z,100374.59
2019-02-28T02:10:03.945Z,100359.92
2019-02-28T02:12:32.469Z,100354.64
2019-02-28T02:14:59.883Z,100362.75
2019-02-28T02:17:27.403Z,100362.92
2019-02-28T02:19:54.794Z,100361.78
2019-02-28T02:22:22.243Z,100359.92
2019-02-28T02:24:49.623Z,100366.31
2019-02-28T02:27:19.540Z,100368.01
2019-02-28T02:29:46.303Z,100363.56
2019-02-28T02:32:13.758Z,100352.58
2019-02-28T02:34:41.155Z,100347.28
2019-02-28T02:37:08.533Z,100343.64
2019-02-28T02:39:35.970Z,100340.19
2019-02-28T02:42:09.979Z,100339.20
2019-02-28T02:44:32.700Z,100340.86
2019-02-28T02:47:00.155Z,100338.69
2019-02-28T02:49:27.561Z,100339.64
2019-02-28T02:51:54.935Z,100338.08
2019-02-28T02:54:22.381Z,100337.72
2019-02-28T02:56:49.798Z,100331.56
2019-02-28T02:59:17.599Z,100326.81
2019-02-28T03:01:44.990Z,100322.91
2019-02-28T03:04:21.391Z,100322.85
2019-02-28T03:06:45.863Z,100324.39
2019-02-28T03:09:11.250Z,100319.34
2019-02-28T03:11:38.753Z,100319.56
2019-02-28T03:14:06.160Z,100314.33
2019-02-28T03:16:34.635Z,100311.36
2019-02-28T03:19:02.274Z,100311.45
2019-02-28T03:21:29.670Z,100312.66
2019-02-28T03:23:57.159Z,100319.05
2019-02-28T03:26:24.591Z,100311.06
2019-02-28T03:28:52.044Z,100302.16
2019-02-28T03:31:19.544Z,100295.45
2019-02-28T03:33:47.031Z,100295.71
2019-02-28T03:36:15.828Z,100293.06
2019-02-28T03:38:48.622Z,100291.14
2019-02-28T03:41:17.642Z,100288.40
2019-02-28T03:43:43.771Z,100281.16
2019-02-28T03:46:11.706Z,100276.59
2019-02-28T03:48:39.198Z,100267.33
2019-02-28T03:51:06.605Z,100270.65
2019-02-28T03:53:34.012Z,100268.95
2019-02-28T03:56:01.387Z,100265.57
2019-02-28T03:58:28.813Z,100274.16
2019-02-28T04:00:56.195Z,100278.05
2019-02-28T04:03:23.626Z,100276.73
2019-02-28T04:05:51.048Z,100274.20
2019-02-28T04:08:19.114Z,100272.16
2019-02-28T04:10:46.778Z,100271.63
2019-02-28T04:13:14.174Z,100273.98
2019-02-28T04:15:49.567Z,100273.12
2019-02-28T04:18:11.050Z,100268.23
2019-02-28T04:20:38.456Z,100263.32
2019-02-28T04:23:05.942Z,100261.80
2019-02-28T04:25:33.383Z,100263.67
2019-02-28T04:28:00.851Z,100251.90
2019-02-28T04:30:32.429Z,100258.01
2019-02-28T04:33:01.488Z,100250.16
2019-02-28T04:35:29.159Z,100254.61
2019-02-28T04:37:56.529Z,100256.62
2019-02-28T04:40:26.774Z,100259.06
2019-02-28T04:42:53.241Z,100259.49
2019-02-28T04:45:23.325Z,100255.83
2019-02-28T04:47:50.100Z,100255.05
2019-02-28T04:50:18.123Z,100251.61
2019-02-28T04:52:48.058Z,100249.20
2019-02-28T04:55:14.908Z,100247.63
2019-02-28T04:57:42.328Z,100240.48
2019-02-28T05:00:09.998Z,100234.25
2019-02-28T05:02:37.381Z,100243.23
2019-02-28T05:05:04.948Z,100240.73
2019-02-28T05:07:32.339Z,100233.11
2019-02-28T05:09:59.873Z,100232.73
2019-02-28T05:12:27.297Z,100221.78
2019-02-28T05:14:55.320Z,100220.83
2019-02-28T05:17:24.009Z,100213.77
2019-02-28T05:19:51.443Z,100215.08
2019-02-28T05:22:18.828Z,100211.42
2019-02-28T05:24:46.273Z,100219.17
2019-02-28T05:27:13.668Z,100213.15
2019-02-28T05:29:43.898Z,100221.03
2019-02-28T05:32:10.683Z,100220.08
2019-02-28T05:34:38.100Z,100221.38
2019-02-28T05:37:05.508Z,100232.30
2019-02-28T05:39:32.979Z,100235.95
2019-02-28T05:42:00.382Z,100239.11
2019-02-28T05:44:28.089Z,100243.68
2019-02-28T05:46:58.103Z,100251.16
2019-02-28T05:49:25.923Z,100253.86
2019-02-28T05:51:53.302Z,100258.70
2019-02-28T05:54:20.761Z,100259.27
2019-02-28T05:56:48.203Z,100257.19
2019-02-28T05:59:15.562Z,100254.09
2019-02-28T06:01:46.577Z,100253.98
2019-02-28T06:04:12.316Z,100251.63
2019-02-28T06:06:39.755Z,100240.97
2019-02-28T06:09:07.142Z,100246.80
2019-02-28T06:11:35.634Z,100235.09
2019-02-28T06:14:03.372Z,100232.36
2019-02-28T06:16:30.782Z,100233.05
2019-02-28T06:18:58.176Z,100236.97
2019-02-28T06:21:25.634Z,100238.00
2019-02-28T06:23:53.059Z,100232.16
2019-02-28T06:26:20.491Z,100235.30
2019-02-28T06:28:47.909Z,100234.20
2019-02-28T06:31:15.421Z,100232.30
2019-02-28T06:33:43.036Z,100242.81
2019-02-28T06:36:10.466Z,100242.92
2019-02-28T06:38:37.871Z,100251.16
2019-02-28T06:41:07.692Z,100262.67
2019-02-28T06:43:34.576Z,100269.48
2019-02-28T06:46:03.705Z,100272.22
2019-02-28T06:48:31.262Z,100276.92
2019-02-28T06:50:58.666Z,100275.08
2019-02-28T06:53:27.150Z,100283.23
2019-02-28T06:55:54.597Z,100276.95
2019-02-28T06:58:22.021Z,100277.95
2019-02-28T07:00:59.781Z,100279.96
2019-02-28T07:03:23.101Z,100273.17
2019-02-28T07:05:50.705Z,100268.31
2019-02-28T07:08:24.448Z,100268.38
2019-02-28T07:10:51.834Z,100273.83
2019-02-28T07:13:19.255Z,100274.25
2019-02-28T07:15:49.254Z,100267.19
2019-02-28T07:18:18.829Z,100265.50
2019-02-28T07:20:48.041Z,100263.28
2019-02-28T07:23:15.553Z,100262.56
2019-02-28T07:25:44.322Z,100259.49
2019-02-28T07:28:12.371Z,100257.31
2019-02-28T07:30:40.114Z,100258.25
2019-02-28T07:33:10.569Z,100258.74
2019-02-28T07:35:37.008Z,100268.06
2019-02-28T07:38:04.566Z,100284.73
2019-02-28T07:40:33.271Z,100275.86
2019-02-28T07:43:01.011Z,100255.08
2019-02-28T07:45:29.601Z,100267.98
2019-02-28T07:47:57.806Z,100266.93
2019-02-28T07:50:25.181Z,100273.27
2019-02-28T07:52:53.272Z,100270.30
2019-02-28T07:55:20.945Z,100272.62
2019-02-28T07:57:54.235Z,100277.86
2019-02-28T08:00:18.771Z,100277.17
2019-02-28T08:02:46.705Z,100277.86
2019-02-28T08:05:14.468Z,100273.58
2019-02-28T08:07:42.229Z,100260.89
2019-02-28T08:10:12.811Z,100252.69
2019-02-28T08:12:41.135Z,100236.16
2019-02-28T08:15:13.675Z,100242.86
2019-02-28T08:17:43.852Z,100237.33
2019-02-28T08:20:11.438Z,100238.25
2019-02-28T08:22:39.110Z,100248.02
2019-02-28T08:25:08.579Z,100227.91
2019-02-28T08:27:36.447Z,100218.01
2019-02-28T08:30:05.470Z,100209.50
2019-02-28T08:32:33.875Z,100204.59
2019-02-28T08:35:02.034Z,100209.90
2019-02-28T08:37:29.760Z,100208.75
2019-02-28T08:39:57.444Z,100210.88
2019-02-28T08:42:25.144Z,100211.20
2019-02-28T08:45:00.805Z,100223.22
2019-02-28T08:47:28.425Z,100222.14
2019-02-28T08:49:56.055Z,100229.41
2019-02-28T08:52:32.885Z,100228.77
2019-02-28T08:55:09.279Z,100226.45
2019-02-28T08:57:37.266Z,100214.84
2019-02-28T09:00:06.585Z,100225.62
2019-02-28T09:02:34.185Z,100205.94
2019-02-28T09:05:01.767Z,100208.98
2019-02-28T09:07:29.365Z,100209.09
2019-02-28T09:09:57.185Z,100216.79
2019-02-28T09:12:24.704Z,100221.45
2019-02-28T09:14:55.415Z,100222.91
2019-02-28T09:17:23.671Z,100219.71
2019-02-28T09:19:51.103Z,100218.73
2019-02-28T09:22:18.499Z,100219.87
2019-02-28T09:24:46.736Z,100215.86
2019-02-28T09:27:15.873Z,100222.89
2019-02-28T09:29:43.317Z,100217.92
2019-02-28T09:32:13.523Z,100213.42
2019-02-28T09:34:41.284Z,100205.57
2019-02-28T09:37:08.857Z,100212.57
2019-02-28T09:39:36.347Z,100199.86
2019-02-28T09:42:03.967Z,100197.78
2019-02-28T09:44:32.408Z,100206.52
2019-02-28T09:47:00.012Z,100203.27
2019-02-28T09:49:27.575Z,100213.48
2019-02-28T09:51:54.947Z,100216.58
2019-02-28T09:54:24.401Z,100219.91
2019-02-28T09:56:51.717Z,100216.72
2019-02-28T09:59:19.553Z,100216.37
2019-02-28T10:01:46.947Z,100222.63
2019-02-28T10:04:14.422Z,100216.95
2019-02-28T10:06:41.909Z,100221.22
2019-02-28T10:09:09.650Z,100230.39
2019-02-28T10:11:37.254Z,100235.59
2019-02-28T10:14:04.877Z,100229.20
2019-02-28T10:16:32.414Z,100225.97
2019-02-28T10:19:00.034Z,100233.55
2019-02-28T10:21:27.574Z,100224.22
2019-02-28T10:23:56.849Z,100218.34
2019-02-28T10:26:25.635Z,100223.50
2019-02-28T10:28:53.436Z,100216.42
2019-02-28T10:31:22.853Z,100207.14
2019-02-28T10:33:52.532Z,100216.48
2019-02-28T10:36:20.095Z,100214.64
2019-02-28T10:38:47.794Z,100223.19
2019-02-28T10:41:15.522Z,100221.38
2019-02-28T10:43:43.317Z,100224.34
2019-02-28T10:46:13.321Z,100221.14
2019-02-28T10:48:50.467Z,100227.28
2019-02-28T10:51:14.089Z,100236.50
2019-02-28T10:53:40.258Z,100238.32
2019-02-28T10:56:07.887Z,100244.91
2019-02-28T10:58:35.454Z,100231.34
2019-02-28T11:01:07.564Z,100229.81
2019-02-28T11:03:33.260Z,100222.22
2019-02-28T11:06:00.994Z,100223.41
2019-02-28T11:08:28.495Z,100219.21
2019-02-28T11:10:56.118Z,100223.46
2019-02-28T11:13:23.717Z,100218.02
2019-02-28T11:15:51.454Z,100219.83
2019-02-28T11:18:19.493Z,100224.19
2019-02-28T11:20:47.094Z,100214.71
2019-02-28T11:23:15.872Z,100207.55
2019-02-28T11:25:43.974Z,100209.84
2019-02-28T11:28:11.634Z,100195.42
2019-02-28T11:30:44.005Z,100192.42
2019-02-28T11:33:09.115Z,100186.91
2019-02-28T11:35:36.794Z,100183.48
2019-02-28T11:38:05.094Z,100184.97
2019-02-28T11:40:33.605Z,100177.00
2019-02-28T11:43:02.726Z,100182.03
2019-02-28T11:45:32.226Z,100188.95
2019-02-28T11:48:02.275Z,100188.00
2019-02-28T11:50:29.974Z,100180.99
2019-02-28T11:53:03.261Z,100169.71
2019-02-28T11:55:27.250Z,100170.44
2019-02-28T11:57:54.924Z,100178.14
2019-02-28T12:00:26.454Z,100167.84
2019-02-28T12:02:59.919Z,100173.98
2019-02-28T12:05:23.783Z,100164.95
2019-02-28T12:07:51.274Z,100162.80
2019-02-28T12:10:19.155Z,100150.60
2019-02-28T12:12:46.754Z,100149.57
2019-02-28T12:15:15.814Z,100144.52
2019-02-28T12:17:43.454Z,100141.66
2019-02-28T12:20:11.935Z,100143.16
2019-02-28T12:22:39.676Z,100144.72
2019-02-28T12:25:08.529Z,100145.05
2019-02-28T12:27:36.176Z,100146.41
2019-02-28T12:30:05.095Z,100149.80
2019-02-28T12:32:33.019Z,100153.73
2019-02-28T12:35:02.295Z,100147.77
2019-02-28T12:37:36.474Z,100146.40
2019-02-28T12:40:49.917Z,100134.48
2019-02-28T12:43:30.255Z,100143.30
2019-02-28T12:46:00.122Z,100155.55
2019-02-28T12:48:27.616Z,100151.42
2019-02-28T12:50:56.403Z,100152.84
2019-02-28T12:53:35.255Z,100151.55
2019-02-28T12:56:25.214Z,100156.77
2019-02-28T12:59:02.815Z,100151.69
2019-02-28T13:01:58.514Z,100154.77
2019-02-28T13:04:39.387Z,100148.78
2019-02-28T13:07:15.273Z,100147.46
2019-02-28T13:10:06.947Z,100134.30
2019-02-28T13:12:35.145Z,100126.42
2019-02-28T13:15:46.805Z,100132.80
2019-02-28T13:18:34.865Z,100130.08
2019-02-28T13:21:43.614Z,100126.05
2019-02-28T13:24:16.306Z,100125.27
2019-02-28T13:28:17.678Z,100135.78
2019-02-28T13:32:04.020Z,100135.07
2019-02-28T13:41:22.111Z,100140.34
2019-02-28T13:44:36.290Z,100131.34
2019-02-28T13:47:58.062Z,100135.06
2019-02-28T13:51:40.696Z,100136.90
2019-02-28T13:54:23.509Z,100139.78
2019-02-28T13:57:13.626Z,100134.69
2019-02-28T14:00:24.020Z,100136.86
2019-02-28T14:02:56.609Z,100128.14
2019-02-28T14:06:19.794Z,100137.98
2019-02-28T14:08:47.764Z,100142.97
2019-02-28T14:12:05.690Z,100145.69
2019-02-28T14:14:42.291Z,100143.23
2019-02-28T14:18:11.588Z,100131.67
2019-02-28T14:20:37.933Z,100123.42
2019-02-28T14:23:05.725Z,100121.53
2019-02-28T14:25:39.794Z,100122.71
2019-02-28T14:28:06.494Z,100114.66
2019-02-28T14:31:32.980Z,100121.14
2019-02-28T14:33:16.187Z,100125.43
2019-02-28T14:35:57.894Z,100121.82
2019-02-28T14:38:51.465Z,100118.77
2019-02-28T14:44:58.970Z,100118.63
2019-02-28T14:47:28.523Z,100115.70
2019-02-28T14:51:07.467Z,100113.23
2019-02-28T14:53:49.128Z,100117.56
2019-02-28T14:56:49.056Z,100104.77
2019-02-28T15:00:42.301Z,100107.25
2019-02-28T15:04:17.004Z,100099.71
2019-02-28T15:07:59.033Z,100097.77
2019-02-28T15:11:10.025Z,100086.48
2019-02-28T15:14:37.305Z,100083.98
2019-02-28T15:17:38.667Z,100091.48
2019-02-28T15:20:31.701Z,100090.47
2019-02-28T15:23:02.783Z,100074.69
2019-02-28T15:25:35.782Z,100075.89
2019-02-28T15:28:19.844Z,100080.28
2019-02-28T15:34:25.237Z,100068.95
2019-02-28T15:37:04.243Z,100069.09
2019-02-28T15:39:36.808Z,100074.05
2019-02-28T15:43:41.927Z,100069.48
2019-02-28T15:46:01.805Z,100071.93
2019-02-28T15:55:50.194Z,100073.82
2019-02-28T15:58:42.322Z,100070.64
2019-02-28T16:02:09.445Z,100071.08
2019-02-28T16:05:05.689Z,100078.06
2019-02-28T16:08:21.951Z,100074.55
2019-02-28T16:11:27.721Z,100075.36
2019-02-28T16:14:14.288Z,100076.30
2019-02-28T16:17:14.644Z,100073.00
2019-02-28T16:19:48.568Z,100074.43
2019-02-28T16:23:16.223Z,100081.37
2019-02-28T16:25:46.888Z,100080.06
2019-02-28T16:28:29.806Z,100075.38
2019-02-28T16:31:18.736Z,100076.70
2019-02-28T16:33:52.161Z,100073.67
2019-02-28T16:40:57.701Z,100073.60
2019-02-28T16:48:06.998Z,100080.77
2019-02-28T16:51:03.106Z,100077.36
2019-02-28T17:01:45.906Z,100081.19
2019-02-28T17:05:28.164Z,100076.05
2019-02-28T17:20:22.176Z,100090.71
2019-02-28T17:22:52.209Z,100096.91
2019-02-28T17:25:39.800Z,100103.67
2019-02-28T17:28:23.997Z,100107.03
2019-02-28T17:31:12.506Z,100112.70
2019-02-28T17:34:31.241Z,100110.16
2019-02-28T17:37:36.213Z,100110.23
2019-02-28T17:40:09.254Z,100105.69
2019-02-28T17:43:04.113Z,100114.05
2019-02-28T17:46:22.767Z,100116.14
2019-02-28T17:49:50.874Z,100121.36
2019-02-28T17:53:18.472Z,100124.73
2019-02-28T17:58:06.922Z,100114.82
2019-02-28T18:00:57.468Z,100097.90
2019-02-28T18:08:27.815Z,100121.33
2019-02-28T18:12:05.967Z,100121.39
2019-02-28T18:18:53.234Z,100121.39
2019-02-28T18:22:12.935Z,100123.92
2019-02-28T18:25:32.754Z,100123.66
2019-02-28T18:28:58.914Z,100128.24
2019-02-28T18:32:12.654Z,100131.61
2019-02-28T18:34:48.923Z,100123.38
2019-02-28T18:37:17.422Z,100133.41
2019-02-28T18:40:10.576Z,100130.02
2019-02-28T18:42:54.054Z,100126.68
2019-02-28T18:45:38.186Z,100119.98
2019-02-28T18:48:25.745Z,100120.25
2019-02-28T18:51:20.394Z,100126.40
2019-02-28T18:53:50.938Z,100119.23
2019-02-28T18:56:39.307Z,100118.14
2019-02-28T18:59:16.404Z,100108.31
2019-02-28T19:01:50.463Z,100109.35
2019-02-28T19:04:24.645Z,100116.20
2019-02-28T19:06:56.102Z,100117.52
2019-02-28T19:09:25.162Z,100115.66
2019-02-28T19:11:59.295Z,100119.66
2019-02-28T19:14:38.065Z,100122.95
2019-02-28T19:17:10.771Z,100118.67
2019-02-28T19:19:39.262Z,100121.89
2019-02-28T19:22:07.534Z,100122.22
2019-02-28T19:24:36.242Z,100123.80
2019-02-28T19:27:05.788Z,100119.78
2019-02-28T19:29:34.106Z,100118.25
2019-02-28T19:32:02.255Z,100112.41
2019-02-28T19:34:30.509Z,100110.03
2019-02-28T19:36:59.714Z,100114.47
2019-02-28T19:39:27.695Z,100114.20
2019-02-28T19:41:55.834Z,100116.13
2019-02-28T19:44:23.835Z,100121.19
2019-02-28T19:46:52.094Z,100114.69
2019-02-28T19:49:20.440Z,100108.42
2019-02-28T19:51:48.878Z,100105.59
2019-02-28T19:54:18.038Z,100099.97
2019-02-28T19:56:46.683Z,100099.22
2019-02-28T19:59:15.455Z,100104.06
2019-02-28T20:01:45.333Z,100097.39
2019-02-28T20:04:15.390Z,100097.45
2019-02-28T20:06:43.902Z,100088.97
2019-02-28T20:09:13.554Z,100083.64
2019-02-28T20:11:41.594Z,100089.68
2019-02-28T20:14:09.674Z,100086.83
2019-02-28T20:16:38.014Z,100081.95
2019-02-28T20:19:07.215Z,100083.58
2019-02-28T20:21:35.295Z,100082.40
2019-02-28T20:24:03.497Z,100084.31
2019-02-28T20:26:31.622Z,100081.72
2019-02-28T20:28:59.955Z,100075.16
2019-02-28T20:31:29.854Z,100073.95
2019-02-28T20:33:57.856Z,100076.06
2019-02-28T20:36:27.142Z,100079.37
2019-02-28T20:38:56.619Z,100080.23
2019-02-28T20:41:24.676Z,100076.62
2019-02-28T20:43:54.855Z,100068.96
2019-02-28T20:46:22.934Z,100074.30
2019-02-28T20:48:50.956Z,100070.45
2019-02-28T20:51:19.479Z,100070.50
2019-02-28T20:53:47.434Z,100076.24
2019-02-28T20:56:15.594Z,100073.02
2019-02-28T20:58:43.555Z,100071.81
2019-02-28T21:01:11.948Z,100076.97
2019-02-28T21:03:40.114Z,100080.00
2019-02-28T21:06:08.155Z,100082.97
2019-02-28T21:08:36.284Z,100087.82
2019-02-28T21:11:04.414Z,100092.77
2019-02-28T21:13:32.495Z,100085.27
2019-02-28T21:16:00.776Z,100079.30
2019-02-28T21:18:28.734Z,100077.80
2019-02-28T21:20:56.694Z,100080.31
2019-02-28T21:23:24.655Z,100081.84
2019-02-28T21:25:52.665Z,100080.08
2019-02-28T21:28:20.906Z,100080.87
2019-02-28T21:30:49.054Z,100087.92
2019-02-28T21:33:17.202Z,100085.64
2019-02-28T21:35:45.237Z,100081.96
2019-02-28T21:38:13.275Z,100071.45
2019-02-28T21:40:41.274Z,100073.14
2019-02-28T21:43:09.247Z,100074.34
2019-02-28T21:45:37.315Z,100067.44
2019-02-28T21:48:05.278Z,100068.11
2019-02-28T21:50:32.894Z,100061.39
2019-02-28T21:53:00.696Z,100064.05
2019-02-28T21:55:28.235Z,100057.45
2019-02-28T21:57:56.035Z,100052.34
2019-02-28T22:00:23.874Z,100058.60
2019-02-28T22:02:51.495Z,100054.86
2019-02-28T22:05:19.197Z,100053.20
2019-02-28T22:07:46.800Z,100049.58
2019-02-28T22:10:14.576Z,100052.95
2019-02-28T22:12:42.174Z,100046.45
2019-02-28T22:15:11.974Z,100046.08
2019-02-28T22:17:40.173Z,100051.47
2019-02-28T22:20:09.015Z,100048.13
2019-02-28T22:22:36.635Z,100045.70
2019-02-28T22:25:04.387Z,100040.08
2019-02-28T22:27:32.135Z,100042.19
2019-02-28T22:30:02.294Z,100036.25
2019-02-28T22:32:35.644Z,100038.42
2019-02-28T22:35:25.774Z,100026.20
2019-02-28T22:37:53.355Z,100031.08
2019-02-28T22:40:20.895Z,100026.13
2019-02-28T22:42:48.454Z,100024.81
2019-02-28T22:45:17.214Z,100018.48
2019-02-28T22:47:44.754Z,100021.11
2019-02-28T22:50:13.154Z,100023.50
2019-02-28T22:52:40.757Z,100015.52
2019-02-28T22:55:08.594Z,100016.83
2019-02-28T22:57:36.235Z,100014.31
2019-02-28T23:00:08.434Z,100009.28
2019-02-28T23:02:35.955Z,100005.61
2019-02-28T23:05:03.671Z,99995.33
2019-02-28T23:07:31.242Z,99994.77
2019-02-28T23:09:58.814Z,99992.18
2019-02-28T23:12:26.371Z,99990.04
2019-02-28T23:14:56.751Z,99986.70
2019-02-28T23:17:24.534Z,99986.48
2019-02-28T23:19:52.117Z,99980.17
2019-02-28T23:22:19.695Z,99988.17
2019-02-28T23:24:47.455Z,99976.36
2019-02-28T23:27:16.714Z,99980.66
2019-02-28T23:30:00.545Z,99980.67
2019-02-28T23:33:08.069Z,99975.87
2019-02-28T23:35:49.173Z,99969.00
2019-02-28T23:38:25.153Z,99977.81
2019-02-28T23:41:03.109Z,99960.97
2019-02-28T23:43:31.474Z,99958.54
2019-02-28T23:45:59.454Z,99954.82
2019-02-28T23:48:28.013Z,99957.48
2019-02-28T23:51:05.154Z,99959.66
2019-02-28T23:53:36.934Z,99951.63
2019-02-28T23:56:04.792Z,99949.34
2019-02-28T23:58:33.677Z,99947.09
